createdAt,value
2018-05-23T00:00:08.263Z,88.60
2018-05-23T00:02:36.470Z,88.10
2018-05-23T00:05:03.909Z,88.00
2018-05-23T00:07:31.356Z,87.30
2018-05-23T00:09:58.790Z,88.00
2018-05-23T00:12:26.991Z,89.30
2018-05-23T00:14:54.439Z,89.20
2018-05-23T00:17:21.874Z,89.40
2018-05-23T00:19:50.098Z,89.40
2018-05-23T00:22:17.543Z,89.30
2018-05-23T00:24:45.000Z,89.00
2018-05-23T00:27:12.423Z,88.80
2018-05-23T00:29:40.640Z,88.60
2018-05-23T00:32:08.074Z,88.50
2018-05-23T00:34:35.524Z,88.30
2018-05-23T00:37:03.731Z,86.20
2018-05-23T00:39:31.169Z,86.20
2018-05-23T00:41:58.605Z,85.70
2018-05-23T00:44:26.811Z,86.00
2018-05-23T00:46:54.247Z,85.90
2018-05-23T00:49:21.698Z,86.60
2018-05-23T00:51:49.915Z,85.90
2018-05-23T00:54:17.355Z,85.90
2018-05-23T00:56:44.797Z,86.10
2018-05-23T00:59:13.015Z,87.90
2018-05-23T01:01:40.443Z,87.90
2018-05-23T01:04:07.890Z,88.50
2018-05-23T01:06:35.331Z,87.40
2018-05-23T01:09:03.554Z,86.70
2018-05-23T01:11:30.979Z,86.70
2018-05-23T01:13:58.431Z,86.50
2018-05-23T01:16:26.633Z,86.80
2018-05-23T01:18:54.081Z,86.80
2018-05-23T01:21:21.511Z,87.00
2018-05-23T01:23:49.725Z,86.90
2018-05-23T01:26:17.166Z,86.90
2018-05-23T01:28:44.618Z,88.00
2018-05-23T01:31:12.060Z,87.60
2018-05-23T01:33:40.261Z,88.50
2018-05-23T01:36:07.705Z,88.40
2018-05-23T01:38:35.141Z,87.40
2018-05-23T01:41:03.364Z,87.80
2018-05-23T01:43:30.797Z,87.80
2018-05-23T01:45:58.250Z,87.60
2018-05-23T01:48:25.691Z,87.60
2018-05-23T01:50:53.897Z,88.40
2018-05-23T01:53:21.329Z,88.40
2018-05-23T01:55:48.775Z,88.30
2018-05-23T01:58:16.973Z,88.00
2018-05-23T02:00:44.413Z,88.00
2018-05-23T02:03:12.614Z,87.20
2018-05-23T02:05:40.063Z,87.20
2018-05-23T02:08:07.498Z,86.90
2018-05-23T02:10:35.706Z,88.20
2018-05-23T02:13:03.151Z,88.10
2018-05-23T02:15:30.592Z,88.60
2018-05-23T02:17:58.790Z,88.60
2018-05-23T02:20:26.237Z,88.60
2018-05-23T02:22:53.676Z,88.70
2018-05-23T02:25:21.882Z,89.50
2018-05-23T02:27:49.322Z,89.40
2018-05-23T02:30:16.773Z,89.40
2018-05-23T02:32:44.222Z,89.30
2018-05-23T02:35:12.439Z,90.00
2018-05-23T02:37:39.875Z,89.90
2018-05-23T02:40:07.306Z,90.00
2018-05-23T02:42:35.521Z,90.00
2018-05-23T02:45:02.950Z,89.90
2018-05-23T02:47:31.683Z,90.10
2018-05-23T02:49:59.134Z,89.90
2018-05-23T02:52:26.575Z,89.80
2018-05-23T02:54:54.008Z,89.80
2018-05-23T02:57:22.220Z,90.30
2018-05-23T02:59:49.653Z,90.30
2018-05-23T03:02:17.361Z,90.30
2018-05-23T03:04:44.803Z,90.60
2018-05-23T03:07:12.255Z,90.60
2018-05-23T03:09:39.691Z,90.70
2018-05-23T03:12:07.146Z,90.90
2018-05-23T03:14:34.591Z,90.40
2018-05-23T03:17:02.822Z,90.20
2018-05-23T03:19:30.254Z,90.20
2018-05-23T03:21:57.695Z,90.20
2018-05-23T03:24:25.135Z,90.40
2018-05-23T03:26:53.342Z,90.40
2018-05-23T03:29:21.620Z,90.40
2018-05-23T03:31:49.069Z,90.10
2018-05-23T03:34:16.511Z,89.80
2018-05-23T03:36:43.971Z,89.30
2018-05-23T03:39:11.403Z,90.20
2018-05-23T03:41:39.613Z,90.30
2018-05-23T03:44:07.062Z,90.20
2018-05-23T03:46:34.518Z,90.20
2018-05-23T03:49:01.964Z,90.30
2018-05-23T03:51:30.182Z,90.80
2018-05-23T03:53:57.626Z,90.80
2018-05-23T03:56:25.079Z,90.90
2018-05-23T03:58:52.519Z,90.50
2018-05-23T04:01:32.012Z,90.90
2018-05-23T04:04:11.393Z,91.00
2018-05-23T04:06:51.516Z,91.00
2018-05-23T04:09:18.948Z,91.00
2018-05-23T04:11:46.401Z,90.80
2018-05-23T04:14:13.842Z,91.00
2018-05-23T04:16:41.269Z,91.20
2018-05-23T04:19:08.723Z,91.20
2018-05-23T04:21:36.934Z,91.20
2018-05-23T04:24:04.474Z,91.20
2018-05-23T04:26:31.829Z,91.30
2018-05-23T04:28:59.266Z,91.30
2018-05-23T04:31:27.486Z,91.30
2018-05-23T04:33:54.943Z,91.20
2018-05-23T04:36:22.374Z,91.00
2018-05-23T04:38:49.820Z,90.70
2018-05-23T04:41:17.257Z,90.30
2018-05-23T04:43:45.472Z,91.00
2018-05-23T04:46:12.908Z,91.00
2018-05-23T04:48:41.362Z,91.60
2018-05-23T04:51:08.783Z,91.60
2018-05-23T04:53:36.226Z,91.80
2018-05-23T04:56:03.682Z,91.60
2018-05-23T04:58:31.120Z,91.20
2018-05-23T05:00:58.554Z,90.90
2018-05-23T05:03:26.791Z,91.20
2018-05-23T05:05:54.230Z,91.20
2018-05-23T05:08:21.680Z,91.40
2018-05-23T05:10:49.116Z,91.20
2018-05-23T05:13:17.332Z,91.60
2018-05-23T05:15:44.762Z,91.60
2018-05-23T05:18:12.202Z,91.20
2018-05-23T05:20:40.407Z,91.00
2018-05-23T05:23:07.864Z,91.00
2018-05-23T05:25:35.299Z,91.10
2018-05-23T05:28:02.742Z,91.60
2018-05-23T05:30:30.954Z,91.90
2018-05-23T05:32:58.394Z,91.90
2018-05-23T05:35:25.841Z,91.70
2018-05-23T05:37:54.049Z,91.90
2018-05-23T05:40:21.497Z,91.90
2018-05-23T05:42:48.941Z,91.70
2018-05-23T05:45:16.391Z,91.70
2018-05-23T05:47:44.591Z,91.70
2018-05-23T05:50:12.041Z,91.70
2018-05-23T05:52:39.480Z,91.90
2018-05-23T05:55:06.921Z,92.00
2018-05-23T05:57:35.139Z,92.00
2018-05-23T06:00:02.586Z,92.00
2018-05-23T06:02:30.024Z,91.80
2018-05-23T06:04:58.235Z,91.60
2018-05-23T06:07:25.679Z,91.60
2018-05-23T06:09:53.176Z,91.70
2018-05-23T06:12:20.588Z,91.80
2018-05-23T06:14:48.041Z,91.80
2018-05-23T06:17:15.508Z,91.80
2018-05-23T06:19:42.965Z,91.90
2018-05-23T06:22:10.399Z,91.90
2018-05-23T06:24:37.862Z,91.90
2018-05-23T06:27:05.295Z,91.90
2018-05-23T06:29:33.519Z,92.00
2018-05-23T06:32:00.975Z,92.00
2018-05-23T06:34:28.414Z,91.50
2018-05-23T06:36:56.292Z,91.20
2018-05-23T06:39:23.721Z,90.90
2018-05-23T06:41:51.947Z,90.50
2018-05-23T06:44:20.159Z,91.00
2018-05-23T06:46:47.594Z,91.00
2018-05-23T06:49:15.034Z,90.40
2018-05-23T06:51:42.478Z,91.00
2018-05-23T06:54:09.943Z,91.30
2018-05-23T06:56:37.407Z,91.40
2018-05-23T06:59:04.841Z,91.40
2018-05-23T07:01:32.289Z,92.10
2018-05-23T07:03:59.725Z,91.00
2018-05-23T07:06:27.938Z,92.30
2018-05-23T07:08:55.370Z,92.20
2018-05-23T07:11:22.824Z,92.00
2018-05-23T07:13:51.019Z,91.20
2018-05-23T07:16:18.473Z,91.20
2018-05-23T07:18:45.906Z,91.30
2018-05-23T07:21:14.120Z,91.10
2018-05-23T07:23:41.572Z,91.10
2018-05-23T07:26:09.019Z,91.20
2018-05-23T07:28:36.450Z,91.30
2018-05-23T07:31:04.662Z,90.10
2018-05-23T07:33:32.096Z,90.10
2018-05-23T07:35:59.550Z,90.60
2018-05-23T07:38:27.095Z,90.00
2018-05-23T07:40:54.453Z,89.00
2018-05-23T07:43:22.678Z,90.20
2018-05-23T07:45:50.199Z,90.10
2018-05-23T07:48:17.590Z,90.50
2018-05-23T07:50:45.027Z,90.50
2018-05-23T07:53:12.466Z,90.70
2018-05-23T07:55:39.901Z,90.90
2018-05-23T07:58:07.343Z,90.50
2018-05-23T08:00:34.794Z,90.60
2018-05-23T08:03:02.243Z,90.40
2018-05-23T08:05:29.681Z,90.30
2018-05-23T08:07:57.139Z,90.40
2018-05-23T08:10:24.581Z,90.20
2018-05-23T08:12:52.044Z,90.50
2018-05-23T08:15:19.474Z,90.90
2018-05-23T08:17:47.704Z,91.10
2018-05-23T08:20:15.132Z,91.10
2018-05-23T08:22:42.578Z,90.90
2018-05-23T08:25:10.019Z,90.20
2018-05-23T08:27:38.238Z,88.10
2018-05-23T08:30:05.686Z,88.10
2018-05-23T08:32:33.131Z,87.10
2018-05-23T08:35:00.563Z,88.40
2018-05-23T08:37:28.775Z,88.60
2018-05-23T08:39:56.211Z,88.40
2018-05-23T08:42:23.657Z,86.50
2018-05-23T08:44:51.871Z,88.70
2018-05-23T08:47:19.314Z,88.60
2018-05-23T08:49:46.754Z,88.10
2018-05-23T08:52:14.203Z,87.00
2018-05-23T08:54:42.415Z,87.50
2018-05-23T08:57:09.855Z,87.50
2018-05-23T08:59:37.308Z,87.10
2018-05-23T09:02:04.743Z,87.50
2018-05-23T09:04:32.980Z,86.60
2018-05-23T09:07:00.405Z,86.60
2018-05-23T09:09:27.866Z,85.20
2018-05-23T09:11:55.294Z,85.00
2018-05-23T09:14:23.523Z,83.30
2018-05-23T09:16:50.962Z,83.20
2018-05-23T09:19:18.418Z,84.60
2018-05-23T09:21:45.851Z,83.10
2018-05-23T09:24:13.306Z,84.10
2018-05-23T09:26:40.764Z,85.60
2018-05-23T09:29:08.970Z,78.70
2018-05-23T09:31:36.490Z,78.60
2018-05-23T09:34:04.721Z,80.00
2018-05-23T09:36:32.153Z,80.00
2018-05-23T09:38:59.606Z,79.30
2018-05-23T09:41:27.034Z,77.80
2018-05-23T09:43:55.264Z,77.90
2018-05-23T09:46:22.704Z,77.90
2018-05-23T09:48:50.154Z,76.60
2018-05-23T09:51:17.603Z,73.60
2018-05-23T09:53:45.047Z,74.00
2018-05-23T09:56:12.497Z,72.20
2018-05-23T09:58:40.713Z,69.80
2018-05-23T10:01:08.139Z,69.80
2018-05-23T10:03:35.577Z,72.70
2018-05-23T10:06:03.794Z,69.00
2018-05-23T10:08:31.237Z,68.80
2018-05-23T10:10:58.688Z,68.00
2018-05-23T10:13:26.123Z,64.20
2018-05-23T10:15:54.330Z,67.20
2018-05-23T10:18:21.779Z,67.20
2018-05-23T10:20:49.226Z,67.90
2018-05-23T10:23:16.659Z,68.20
2018-05-23T10:25:44.112Z,69.20
2018-05-23T10:28:11.550Z,68.70
2018-05-23T10:30:39.015Z,69.60
2018-05-23T10:33:06.443Z,72.00
2018-05-23T10:35:33.906Z,71.10
2018-05-23T10:38:01.343Z,72.10
2018-05-23T10:40:28.786Z,73.10
2018-05-23T10:42:56.228Z,73.90
2018-05-23T10:45:24.443Z,73.10
2018-05-23T10:47:51.878Z,73.10
2018-05-23T10:50:19.330Z,73.00
2018-05-23T10:52:47.537Z,75.20
2018-05-23T10:55:14.987Z,74.50
2018-05-23T10:57:42.423Z,75.20
2018-05-23T11:00:09.912Z,77.10
2018-05-23T11:02:37.322Z,77.40
2018-05-23T11:05:05.536Z,76.00
2018-05-23T11:07:32.982Z,76.00
2018-05-23T11:10:00.426Z,78.40
2018-05-23T11:12:27.875Z,78.20
2018-05-23T11:14:56.103Z,81.00
2018-05-23T11:17:23.515Z,80.90
2018-05-23T11:19:50.948Z,81.00
2018-05-23T11:22:19.162Z,84.40
2018-05-23T11:24:46.600Z,84.40
2018-05-23T11:27:14.057Z,84.80
2018-05-23T11:29:41.552Z,84.70
2018-05-23T11:32:08.963Z,85.20
2018-05-23T11:34:37.155Z,81.10
2018-05-23T11:37:04.610Z,81.10
2018-05-23T11:39:32.042Z,81.90
2018-05-23T11:42:00.266Z,84.50
2018-05-23T11:44:27.710Z,84.50
2018-05-23T11:46:55.162Z,85.20
2018-05-23T11:49:22.602Z,83.50
2018-05-23T11:51:50.047Z,81.90
2018-05-23T11:54:18.247Z,81.40
2018-05-23T11:56:45.698Z,81.30
2018-05-23T11:59:13.138Z,80.50
2018-05-23T12:01:41.354Z,78.20
2018-05-23T12:04:08.796Z,78.10
2018-05-23T12:06:36.243Z,79.20
2018-05-23T12:09:03.696Z,80.40
2018-05-23T12:11:31.919Z,80.00
2018-05-23T12:13:59.345Z,80.00
2018-05-23T12:16:26.807Z,81.60
2018-05-23T12:18:54.248Z,81.40
2018-05-23T12:21:21.695Z,80.70
2018-05-23T12:23:49.886Z,82.60
2018-05-23T12:26:17.331Z,82.60
2018-05-23T12:28:44.773Z,82.10
2018-05-23T12:31:12.986Z,81.60
2018-05-23T12:33:40.499Z,81.50
2018-05-23T12:36:07.894Z,81.50
2018-05-23T12:38:35.324Z,81.10
2018-05-23T12:41:03.592Z,77.80
2018-05-23T12:43:31.004Z,77.70
2018-05-23T12:45:58.444Z,79.70
2018-05-23T12:48:25.892Z,79.10
2018-05-23T12:50:53.326Z,79.20
2018-05-23T12:53:21.538Z,78.20
2018-05-23T12:55:48.981Z,78.20
2018-05-23T12:58:16.426Z,75.80
2018-05-23T13:00:43.867Z,75.10
2018-05-23T13:03:12.104Z,71.80
2018-05-23T13:05:39.540Z,71.70
2018-05-23T13:08:06.994Z,70.10
2018-05-23T13:10:34.435Z,69.30
2018-05-23T13:13:01.902Z,70.70
2018-05-23T13:15:29.334Z,69.70
2018-05-23T13:17:57.647Z,68.80
2018-05-23T13:20:25.009Z,68.70
2018-05-23T13:22:52.456Z,70.20
2018-05-23T13:25:19.895Z,68.20
2018-05-23T13:27:47.338Z,67.70
2018-05-23T13:30:15.548Z,68.80
2018-05-23T13:32:42.980Z,68.80
2018-05-23T13:35:10.438Z,67.90
2018-05-23T13:37:38.639Z,68.80
2018-05-23T13:40:06.083Z,68.80
2018-05-23T13:42:33.518Z,69.20
2018-05-23T13:45:01.739Z,68.10
2018-05-23T13:47:29.186Z,68.00
2018-05-23T13:49:56.663Z,67.10
2018-05-23T13:52:24.092Z,67.00
2018-05-23T13:54:51.553Z,68.50
2018-05-23T13:57:19.007Z,67.30
2018-05-23T13:59:46.440Z,66.90
2018-05-23T14:02:14.676Z,67.10
2018-05-23T14:04:42.116Z,67.00
2018-05-23T14:07:09.570Z,68.40
2018-05-23T14:09:37.101Z,69.60
2018-05-23T14:12:04.463Z,66.90
2018-05-23T14:14:31.915Z,66.90
2018-05-23T14:16:59.356Z,68.10
2018-05-23T14:19:27.636Z,72.10
2018-05-23T14:21:55.034Z,72.10
2018-05-23T14:24:22.478Z,72.30
2018-05-23T14:26:49.934Z,73.10
2018-05-23T14:29:17.386Z,71.50
2018-05-23T14:31:44.826Z,70.90
2018-05-23T14:34:12.299Z,70.40
2018-05-23T14:36:39.786Z,70.40
2018-05-23T14:39:07.270Z,68.80
2018-05-23T14:41:34.702Z,70.20
2018-05-23T14:44:02.159Z,70.00
2018-05-23T14:46:29.594Z,70.10
2018-05-23T14:48:57.041Z,70.90
2018-05-23T14:51:24.507Z,71.10
2018-05-23T14:53:51.961Z,71.40
2018-05-23T14:56:19.442Z,71.70
2018-05-23T14:58:46.836Z,70.70
2018-05-23T15:01:15.046Z,72.10
2018-05-23T15:03:42.482Z,72.10
2018-05-23T15:06:10.709Z,71.30
2018-05-23T15:08:38.185Z,71.20
2018-05-23T15:11:05.583Z,72.00
2018-05-23T15:13:33.037Z,71.70
2018-05-23T15:16:00.490Z,71.90
2018-05-23T15:18:28.688Z,70.50
2018-05-23T15:20:56.136Z,70.40
2018-05-23T15:23:23.574Z,72.10
2018-05-23T15:25:51.795Z,73.00
2018-05-23T15:28:19.256Z,73.00
2018-05-23T15:30:46.695Z,72.70
2018-05-23T15:33:14.192Z,73.10
2018-05-23T15:35:41.635Z,75.00
2018-05-23T15:38:09.073Z,77.40
2018-05-23T15:40:36.521Z,77.60
2018-05-23T15:43:03.969Z,79.00
2018-05-23T15:45:31.432Z,78.70
2018-05-23T15:47:58.875Z,78.80
2018-05-23T15:50:26.343Z,77.20
2018-05-23T15:52:53.791Z,77.70
2018-05-23T15:55:21.236Z,74.50
2018-05-23T15:57:49.447Z,76.00
2018-05-23T16:00:16.946Z,76.00
2018-05-23T16:02:44.379Z,78.80
2018-05-23T16:05:11.833Z,78.80
2018-05-23T16:07:39.272Z,76.40
2018-05-23T16:10:06.702Z,76.90
2018-05-23T16:12:34.535Z,78.40
2018-05-23T16:15:01.966Z,77.40
2018-05-23T16:17:29.416Z,76.60
2018-05-23T16:19:56.850Z,76.30
2018-05-23T16:22:24.295Z,76.70
2018-05-23T16:24:51.735Z,77.20
2018-05-23T16:27:19.947Z,77.60
2018-05-23T16:29:47.382Z,77.50
2018-05-23T16:32:14.827Z,79.20
2018-05-23T16:34:43.035Z,79.00
2018-05-23T16:37:10.482Z,78.90
2018-05-23T16:39:37.918Z,78.70
2018-05-23T16:42:06.131Z,78.80
2018-05-23T16:44:33.666Z,78.80
2018-05-23T16:47:01.033Z,77.40
2018-05-23T16:49:28.461Z,77.60
2018-05-23T16:51:56.676Z,76.60
2018-05-23T16:54:24.118Z,76.50
2018-05-23T16:56:51.573Z,76.80
2018-05-23T16:59:19.003Z,77.60
2018-05-23T17:01:46.447Z,78.10
2018-05-23T17:04:13.878Z,76.90
2018-05-23T17:06:41.331Z,76.20
2018-05-23T17:09:08.783Z,77.60
2018-05-23T17:11:36.234Z,78.60
2018-05-23T17:14:03.672Z,79.40
2018-05-23T17:16:31.147Z,79.60
2018-05-23T17:18:58.570Z,79.80
2018-05-23T17:21:26.791Z,79.70
2018-05-23T17:23:54.230Z,79.70
2018-05-23T17:26:21.692Z,80.00
2018-05-23T17:28:49.201Z,79.40
2018-05-23T17:31:16.570Z,78.10
2018-05-23T17:33:44.776Z,75.50
2018-05-23T17:36:12.251Z,75.40
2018-05-23T17:38:39.693Z,77.10
2018-05-23T17:41:07.122Z,74.30
2018-05-23T17:43:35.338Z,74.60
2018-05-23T17:46:02.776Z,74.60
2018-05-23T17:48:30.219Z,75.10
2018-05-23T17:53:32.104Z,76.00
2018-05-23T17:55:59.534Z,75.60
2018-05-23T17:58:27.761Z,76.40
2018-05-23T18:00:55.207Z,76.20
2018-05-23T18:03:22.646Z,76.40
2018-05-23T18:05:50.088Z,77.00
2018-05-23T18:08:18.309Z,77.30
2018-05-23T18:10:45.765Z,77.20
2018-05-23T18:13:13.193Z,77.60
2018-05-23T18:15:40.633Z,77.10
2018-05-23T18:18:08.882Z,77.70
2018-05-23T18:20:36.345Z,77.60
2018-05-23T18:23:03.760Z,77.80
2018-05-23T18:25:31.196Z,78.10
2018-05-23T18:27:58.634Z,78.00
2018-05-23T18:30:26.869Z,78.30
2018-05-23T18:32:54.313Z,78.30
2018-05-23T18:35:21.766Z,78.90
2018-05-23T18:37:49.215Z,79.10
2018-05-23T18:40:16.655Z,79.60
2018-05-23T18:42:44.107Z,79.80
2018-05-23T18:45:11.548Z,80.40
2018-05-23T18:47:39.750Z,81.30
2018-05-23T18:50:07.199Z,81.30
2018-05-23T18:52:34.631Z,81.90
2018-05-23T18:55:02.080Z,82.80
2018-05-23T18:57:30.031Z,83.20
2018-05-23T18:59:57.510Z,83.20
2018-05-23T19:02:24.943Z,83.60
2018-05-23T19:04:52.393Z,83.70
2018-05-23T19:07:20.600Z,85.10
2018-05-23T19:09:48.043Z,85.10
2018-05-23T19:12:15.479Z,84.80
2018-05-23T19:14:42.927Z,85.10
2018-05-23T19:17:10.368Z,85.60
2018-05-23T19:19:37.868Z,85.60
2018-05-23T19:22:05.257Z,85.60
2018-05-23T19:24:33.471Z,85.00
2018-05-23T19:27:00.916Z,85.00
2018-05-23T19:29:28.357Z,85.70
2018-05-23T19:31:55.803Z,85.30
2018-05-23T19:34:24.019Z,85.30
2018-05-23T19:36:51.458Z,85.20
2018-05-23T19:39:18.902Z,85.30
2018-05-23T19:41:46.341Z,85.60
2018-05-23T19:44:13.789Z,86.40
2018-05-23T19:46:41.219Z,86.40
2018-05-23T19:49:08.672Z,87.60
2018-05-23T19:51:36.111Z,88.90
2018-05-23T19:54:03.563Z,88.90
2018-05-23T19:56:31.063Z,89.80
2018-05-23T19:58:59.266Z,90.00
2018-05-23T20:01:27.471Z,89.30
2018-05-23T20:03:54.930Z,89.30
2018-05-23T20:06:22.362Z,89.80
2018-05-23T20:08:50.567Z,90.10
2018-05-23T20:11:18.014Z,90.10
2018-05-23T20:13:45.459Z,90.00
2018-05-23T20:16:12.906Z,90.00
2018-05-23T20:18:41.102Z,90.10
2018-05-23T20:21:08.550Z,90.10
2018-05-23T20:23:35.983Z,90.80
2018-05-23T20:26:03.433Z,90.80
2018-05-23T20:28:30.878Z,91.10
2018-05-23T20:30:58.318Z,91.00
2018-05-23T20:33:25.756Z,91.10
2018-05-23T20:35:53.205Z,91.40
2018-05-23T20:38:20.640Z,91.20
2018-05-23T20:40:48.858Z,90.70
2018-05-23T20:43:16.296Z,90.70
2018-05-23T20:45:43.743Z,90.70
2018-05-23T20:48:11.182Z,91.00
2018-05-23T20:50:39.397Z,91.50
2018-05-23T20:53:06.899Z,91.50
2018-05-23T20:55:34.282Z,92.10
2018-05-23T20:58:01.720Z,92.10
2018-05-23T21:00:29.926Z,91.90
2018-05-23T21:02:57.367Z,91.80
2018-05-23T21:05:25.678Z,92.00
2018-05-23T21:07:53.007Z,91.90
2018-05-23T21:10:20.456Z,91.60
2018-05-23T21:12:48.659Z,92.40
2018-05-23T21:15:16.098Z,92.40
2018-05-23T21:17:43.542Z,92.10
2018-05-23T21:20:11.743Z,92.50
2018-05-23T21:22:39.186Z,92.50
2018-05-23T21:25:06.625Z,92.00
2018-05-23T21:27:34.831Z,91.50
2018-05-23T21:30:02.271Z,91.40
2018-05-23T21:32:29.714Z,91.70
2018-05-23T21:34:57.922Z,92.70
2018-05-23T21:37:25.363Z,92.70
2018-05-23T21:39:52.803Z,93.00
2018-05-23T21:42:21.012Z,92.80
2018-05-23T21:44:48.447Z,92.80
2018-05-23T21:47:15.907Z,92.70
2018-05-23T21:49:43.339Z,92.60
2018-05-23T21:52:10.782Z,92.60
2018-05-23T21:54:38.216Z,91.80
2018-05-23T21:57:05.661Z,91.50
2018-05-23T21:59:33.093Z,91.40
2018-05-23T22:02:00.538Z,91.70
2018-05-23T22:04:28.739Z,92.70
2018-05-23T22:06:56.182Z,92.70
2018-05-23T22:09:23.619Z,92.90
2018-05-23T22:11:51.831Z,93.20
2018-05-23T22:14:19.265Z,93.20
2018-05-23T22:16:46.713Z,93.30
2018-05-23T22:19:14.910Z,93.40
2018-05-23T22:21:42.354Z,93.40
2018-05-23T22:24:09.792Z,93.60
2018-05-23T22:26:37.999Z,93.70
2018-05-23T22:29:05.449Z,93.60
2018-05-23T22:31:32.875Z,93.70
2018-05-23T22:34:00.323Z,93.30
2018-05-23T22:36:27.750Z,93.40
2018-05-23T22:38:55.199Z,93.20
2018-05-23T22:41:22.635Z,93.50
2018-05-23T22:43:50.085Z,94.00
2018-05-23T22:46:18.279Z,93.60
2018-05-23T22:48:45.725Z,93.50
2018-05-23T22:51:13.163Z,93.60
2018-05-23T22:53:41.384Z,92.80
2018-05-23T22:56:08.811Z,92.80
2018-05-23T22:58:36.263Z,92.90
2018-05-23T23:01:04.464Z,92.40
2018-05-23T23:03:31.911Z,92.40
2018-05-23T23:05:59.346Z,92.10
2018-05-23T23:08:27.556Z,92.80
2018-05-23T23:10:54.986Z,92.80
2018-05-23T23:13:22.434Z,92.50
2018-05-23T23:15:50.633Z,92.80
2018-05-23T23:18:18.078Z,92.80
2018-05-23T23:20:45.511Z,93.20
2018-05-23T23:23:13.730Z,93.70
2018-05-23T23:25:41.158Z,93.70
2018-05-23T23:28:10.269Z,93.80
2018-05-23T23:30:37.706Z,93.80
2018-05-23T23:33:05.926Z,93.90
2018-05-23T23:35:33.368Z,93.90
2018-05-23T23:38:00.806Z,93.50
2018-05-23T23:40:28.255Z,93.70
2018-05-23T23:42:56.458Z,94.30
2018-05-23T23:45:23.919Z,94.30
2018-05-23T23:47:51.350Z,94.70
2018-05-23T23:50:18.801Z,94.10
2018-05-23T23:52:47.000Z,93.70
2018-05-23T23:55:14.443Z,93.70
2018-05-23T23:57:41.877Z,93.40
